sensor_id;sensor_type;location;lat;lon;timestamp;P1;durP1;ratioP1;P2;durP2;ratioP2
23171;SDS011;11754;42.664;23.594;2023-07-31T00:01:34;6.35;;;3.47;;
23171;SDS011;11754;42.664;23.594;2023-07-31T00:04:00;7.63;;;3.25;;
23171;SDS011;11754;42.664;23.594;2023-07-31T00:06:25;7.38;;;3.10;;
23171;SDS011;11754;42.664;23.594;2023-07-31T00:08:50;8.20;;;3.30;;
23171;SDS011;11754;42.664;23.594;2023-07-31T00:11:16;6.57;;;3.28;;
23171;SDS011;11754;42.664;23.594;2023-07-31T00:13:41;7.45;;;3.30;;
23171;SDS011;11754;42.664;23.594;2023-07-31T00:16:06;6.35;;;2.88;;
23171;SDS011;11754;42.664;23.594;2023-07-31T00:18:32;4.65;;;3.17;;
23171;SDS011;11754;42.664;23.594;2023-07-31T00:20:57;4.53;;;3.20;;
23171;SDS011;11754;42.664;23.594;2023-07-31T00:23:22;6.13;;;3.63;;
23171;SDS011;11754;42.664;23.594;2023-07-31T00:25:48;6.95;;;3.30;;
23171;SDS011;11754;42.664;23.594;2023-07-31T00:28:13;5.15;;;3.33;;
23171;SDS011;11754;42.664;23.594;2023-07-31T00:30:39;9.45;;;3.63;;
23171;SDS011;11754;42.664;23.594;2023-07-31T00:33:04;5.70;;;3.30;;
23171;SDS011;11754;42.664;23.594;2023-07-31T00:35:30;5.72;;;2.95;;
23171;SDS011;11754;42.664;23.594;2023-07-31T00:37:58;5.60;;;3.50;;
23171;SDS011;11754;42.664;23.594;2023-07-31T00:40:24;7.13;;;3.92;;
23171;SDS011;11754;42.664;23.594;2023-07-31T00:42:49;4.57;;;3.05;;
23171;SDS011;11754;42.664;23.594;2023-07-31T00:45:14;6.90;;;3.33;;
23171;SDS011;11754;42.664;23.594;2023-07-31T00:47:40;5.63;;;3.55;;
23171;SDS011;11754;42.664;23.594;2023-07-31T00:50:06;5.25;;;3.67;;
23171;SDS011;11754;42.664;23.594;2023-07-31T00:52:32;5.43;;;3.50;;
23171;SDS011;11754;42.664;23.594;2023-07-31T00:54:57;4.80;;;3.40;;
23171;SDS011;11754;42.664;23.594;2023-07-31T00:57:23;6.28;;;3.67;;
23171;SDS011;11754;42.664;23.594;2023-07-31T00:59:48;7.15;;;3.83;;
23171;SDS011;11754;42.664;23.594;2023-07-31T01:02:14;6.03;;;3.33;;
23171;SDS011;11754;42.664;23.594;2023-07-31T01:04:42;6.07;;;3.40;;
23171;SDS011;11754;42.664;23.594;2023-07-31T01:07:18;3.60;;;3.20;;
23171;SDS011;11754;42.664;23.594;2023-07-31T01:09:49;7.93;;;3.83;;
23171;SDS011;11754;42.664;23.594;2023-07-31T01:12:21;6.75;;;3.53;;
23171;SDS011;11754;42.664;23.594;2023-07-31T01:14:52;6.60;;;4.00;;
23171;SDS011;11754;42.664;23.594;2023-07-31T01:17:29;6.10;;;3.80;;
23171;SDS011;11754;42.664;23.594;2023-07-31T01:19:55;6.00;;;3.72;;
23171;SDS011;11754;42.664;23.594;2023-07-31T01:22:30;5.55;;;3.97;;
23171;SDS011;11754;42.664;23.594;2023-07-31T01:25:00;6.45;;;4.40;;
23171;SDS011;11754;42.664;23.594;2023-07-31T01:27:51;7.25;;;3.70;;
23171;SDS011;11754;42.664;23.594;2023-07-31T01:30:25;5.85;;;3.80;;
23171;SDS011;11754;42.664;23.594;2023-07-31T01:32:53;6.63;;;4.45;;
23171;SDS011;11754;42.664;23.594;2023-07-31T01:35:20;8.70;;;4.43;;
23171;SDS011;11754;42.664;23.594;2023-07-31T01:37:46;6.45;;;4.50;;
23171;SDS011;11754;42.664;23.594;2023-07-31T01:40:11;5.35;;;4.18;;
23171;SDS011;11754;42.664;23.594;2023-07-31T01:42:37;7.00;;;4.30;;
23171;SDS011;11754;42.664;23.594;2023-07-31T01:45:02;6.35;;;4.55;;
23171;SDS011;11754;42.664;23.594;2023-07-31T01:47:28;9.75;;;4.70;;
23171;SDS011;11754;42.664;23.594;2023-07-31T01:49:53;5.63;;;4.88;;
23171;SDS011;11754;42.664;23.594;2023-07-31T01:52:18;6.53;;;4.40;;
23171;SDS011;11754;42.664;23.594;2023-07-31T01:54:43;7.60;;;4.65;;
23171;SDS011;11754;42.664;23.594;2023-07-31T01:57:09;6.45;;;4.78;;
23171;SDS011;11754;42.664;23.594;2023-07-31T01:59:34;7.15;;;4.70;;
23171;SDS011;11754;42.664;23.594;2023-07-31T02:02:00;7.75;;;5.00;;
23171;SDS011;11754;42.664;23.594;2023-07-31T02:04:25;5.38;;;4.45;;
23171;SDS011;11754;42.664;23.594;2023-07-31T02:06:50;7.72;;;4.75;;
23171;SDS011;11754;42.664;23.594;2023-07-31T02:09:15;6.75;;;5.07;;
23171;SDS011;11754;42.664;23.594;2023-07-31T02:11:41;5.22;;;4.72;;
23171;SDS011;11754;42.664;23.594;2023-07-31T02:14:06;8.20;;;4.93;;
23171;SDS011;11754;42.664;23.594;2023-07-31T02:16:32;8.25;;;5.13;;
23171;SDS011;11754;42.664;23.594;2023-07-31T02:18:57;8.52;;;5.70;;
23171;SDS011;11754;42.664;23.594;2023-07-31T02:21:22;7.00;;;6.30;;
23171;SDS011;11754;42.664;23.594;2023-07-31T02:23:48;10.70;;;6.68;;
23171;SDS011;11754;42.664;23.594;2023-07-31T02:26:13;7.93;;;6.65;;
23171;SDS011;11754;42.664;23.594;2023-07-31T02:28:38;8.40;;;7.60;;
23171;SDS011;11754;42.664;23.594;2023-07-31T02:31:04;8.95;;;8.07;;
23171;SDS011;11754;42.664;23.594;2023-07-31T02:33:29;9.80;;;8.82;;
23171;SDS011;11754;42.664;23.594;2023-07-31T02:35:54;9.63;;;8.50;;
23171;SDS011;11754;42.664;23.594;2023-07-31T02:38:20;11.32;;;9.95;;
23171;SDS011;11754;42.664;23.594;2023-07-31T02:40:45;11.57;;;9.82;;
23171;SDS011;11754;42.664;23.594;2023-07-31T02:43:10;12.35;;;9.57;;
23171;SDS011;11754;42.664;23.594;2023-07-31T02:45:36;11.90;;;10.70;;
23171;SDS011;11754;42.664;23.594;2023-07-31T02:48:01;13.20;;;11.57;;
23171;SDS011;11754;42.664;23.594;2023-07-31T02:50:26;14.38;;;11.73;;
23171;SDS011;11754;42.664;23.594;2023-07-31T02:52:53;17.58;;;12.85;;
23171;SDS011;11754;42.664;23.594;2023-07-31T02:55:18;16.73;;;12.90;;
23171;SDS011;11754;42.664;23.594;2023-07-31T02:57:44;30.80;;;13.32;;
23171;SDS011;11754;42.664;23.594;2023-07-31T03:00:09;47.38;;;14.85;;
23171;SDS011;11754;42.664;23.594;2023-07-31T03:02:35;34.15;;;14.73;;
23171;SDS011;11754;42.664;23.594;2023-07-31T03:05:00;29.70;;;16.02;;
23171;SDS011;11754;42.664;23.594;2023-07-31T03:07:25;26.38;;;16.30;;
23171;SDS011;11754;42.664;23.594;2023-07-31T03:09:51;19.40;;;16.45;;
23171;SDS011;11754;42.664;23.594;2023-07-31T03:12:16;23.30;;;16.40;;
23171;SDS011;11754;42.664;23.594;2023-07-31T03:14:41;18.83;;;16.83;;
23171;SDS011;11754;42.664;23.594;2023-07-31T03:17:07;19.27;;;17.27;;
23171;SDS011;11754;42.664;23.594;2023-07-31T03:19:32;21.08;;;18.58;;
23171;SDS011;11754;42.664;23.594;2023-07-31T03:21:58;21.83;;;17.65;;
23171;SDS011;11754;42.664;23.594;2023-07-31T03:24:24;21.63;;;19.38;;
23171;SDS011;11754;42.664;23.594;2023-07-31T03:26:50;23.15;;;19.55;;
23171;SDS011;11754;42.664;23.594;2023-07-31T03:29:15;22.55;;;20.30;;
23171;SDS011;11754;42.664;23.594;2023-07-31T03:31:41;22.95;;;20.40;;
23171;SDS011;11754;42.664;23.594;2023-07-31T03:34:06;24.15;;;21.42;;
23171;SDS011;11754;42.664;23.594;2023-07-31T03:36:31;25.15;;;21.33;;
23171;SDS011;11754;42.664;23.594;2023-07-31T03:38:57;24.73;;;21.83;;
23171;SDS011;11754;42.664;23.594;2023-07-31T03:41:22;24.60;;;21.92;;
23171;SDS011;11754;42.664;23.594;2023-07-31T03:43:49;24.80;;;22.17;;
23171;SDS011;11754;42.664;23.594;2023-07-31T03:46:16;25.00;;;21.48;;
23171;SDS011;11754;42.664;23.594;2023-07-31T03:48:42;24.38;;;21.88;;
23171;SDS011;11754;42.664;23.594;2023-07-31T03:51:07;24.65;;;21.83;;
23171;SDS011;11754;42.664;23.594;2023-07-31T03:53:32;24.13;;;21.52;;
23171;SDS011;11754;42.664;23.594;2023-07-31T03:55:58;23.77;;;21.13;;
23171;SDS011;11754;42.664;23.594;2023-07-31T03:58:23;24.10;;;21.17;;
23171;SDS011;11754;42.664;23.594;2023-07-31T04:00:48;23.20;;;20.63;;
23171;SDS011;11754;42.664;23.594;2023-07-31T04:03:13;22.55;;;19.90;;
23171;SDS011;11754;42.664;23.594;2023-07-31T04:05:39;22.58;;;18.50;;
23171;SDS011;11754;42.664;23.594;2023-07-31T04:08:05;20.17;;;18.05;;
23171;SDS011;11754;42.664;23.594;2023-07-31T04:10:30;19.95;;;17.35;;
23171;SDS011;11754;42.664;23.594;2023-07-31T04:12:58;18.70;;;16.77;;
23171;SDS011;11754;42.664;23.594;2023-07-31T04:15:23;15.88;;;14.27;;
23171;SDS011;11754;42.664;23.594;2023-07-31T04:17:48;16.15;;;14.30;;
23171;SDS011;11754;42.664;23.594;2023-07-31T04:20:14;14.00;;;12.50;;
23171;SDS011;11754;42.664;23.594;2023-07-31T04:22:39;15.25;;;12.27;;
23171;SDS011;11754;42.664;23.594;2023-07-31T04:25:05;15.98;;;11.88;;
23171;SDS011;11754;42.664;23.594;2023-07-31T04:27:30;13.23;;;10.77;;
23171;SDS011;11754;42.664;23.594;2023-07-31T04:29:56;10.77;;;9.77;;
23171;SDS011;11754;42.664;23.594;2023-07-31T04:32:21;11.38;;;10.13;;
23171;SDS011;11754;42.664;23.594;2023-07-31T04:34:46;16.70;;;10.55;;
23171;SDS011;11754;42.664;23.594;2023-07-31T04:37:12;12.32;;;10.30;;
23171;SDS011;11754;42.664;23.594;2023-07-31T04:39:37;14.10;;;10.43;;
23171;SDS011;11754;42.664;23.594;2023-07-31T04:42:02;12.32;;;11.10;;
23171;SDS011;11754;42.664;23.594;2023-07-31T04:44:28;12.82;;;11.45;;
23171;SDS011;11754;42.664;23.594;2023-07-31T04:46:53;15.43;;;11.48;;
23171;SDS011;11754;42.664;23.594;2023-07-31T04:49:19;23.80;;;12.52;;
23171;SDS011;11754;42.664;23.594;2023-07-31T04:51:44;14.57;;;11.73;;
23171;SDS011;11754;42.664;23.594;2023-07-31T04:54:09;12.45;;;11.18;;
23171;SDS011;11754;42.664;23.594;2023-07-31T04:56:37;12.50;;;10.95;;
23171;SDS011;11754;42.664;23.594;2023-07-31T04:59:02;15.43;;;11.50;;
23171;SDS011;11754;42.664;23.594;2023-07-31T05:01:28;12.20;;;10.85;;
23171;SDS011;11754;42.664;23.594;2023-07-31T05:03:53;14.80;;;12.27;;
23171;SDS011;11754;42.664;23.594;2023-07-31T05:06:18;14.05;;;12.50;;
23171;SDS011;11754;42.664;23.594;2023-07-31T05:08:45;18.23;;;14.68;;
23171;SDS011;11754;42.664;23.594;2023-07-31T05:11:10;21.02;;;15.95;;
23171;SDS011;11754;42.664;23.594;2023-07-31T05:13:36;21.65;;;16.80;;
23171;SDS011;11754;42.664;23.594;2023-07-31T05:16:01;19.55;;;17.55;;
23171;SDS011;11754;42.664;23.594;2023-07-31T05:18:26;21.48;;;17.65;;
23171;SDS011;11754;42.664;23.594;2023-07-31T05:20:52;21.45;;;19.33;;
23171;SDS011;11754;42.664;23.594;2023-07-31T05:23:17;21.58;;;18.90;;
23171;SDS011;11754;42.664;23.594;2023-07-31T05:25:42;24.00;;;21.37;;
23171;SDS011;11754;42.664;23.594;2023-07-31T05:28:08;25.67;;;22.95;;
23171;SDS011;11754;42.664;23.594;2023-07-31T05:30:33;25.88;;;21.67;;
23171;SDS011;11754;42.664;23.594;2023-07-31T05:32:59;25.42;;;22.55;;
23171;SDS011;11754;42.664;23.594;2023-07-31T05:35:24;25.15;;;22.52;;
23171;SDS011;11754;42.664;23.594;2023-07-31T05:37:49;25.00;;;22.38;;
23171;SDS011;11754;42.664;23.594;2023-07-31T05:40:15;24.52;;;21.25;;
23171;SDS011;11754;42.664;23.594;2023-07-31T05:42:40;24.63;;;22.00;;
23171;SDS011;11754;42.664;23.594;2023-07-31T05:45:06;23.73;;;21.27;;
23171;SDS011;11754;42.664;23.594;2023-07-31T05:47:32;22.50;;;20.30;;
23171;SDS011;11754;42.664;23.594;2023-07-31T05:49:57;23.50;;;21.10;;
23171;SDS011;11754;42.664;23.594;2023-07-31T05:52:22;22.65;;;20.42;;
23171;SDS011;11754;42.664;23.594;2023-07-31T05:54:48;22.20;;;19.83;;
23171;SDS011;11754;42.664;23.594;2023-07-31T05:57:13;22.80;;;20.38;;
23171;SDS011;11754;42.664;23.594;2023-07-31T05:59:38;22.00;;;19.58;;
23171;SDS011;11754;42.664;23.594;2023-07-31T06:02:04;21.02;;;18.92;;
23171;SDS011;11754;42.664;23.594;2023-07-31T06:04:29;22.67;;;18.40;;
23171;SDS011;11754;42.664;23.594;2023-07-31T06:06:55;21.52;;;17.67;;
23171;SDS011;11754;42.664;23.594;2023-07-31T06:09:21;18.60;;;16.75;;
23171;SDS011;11754;42.664;23.594;2023-07-31T06:11:46;18.60;;;16.75;;
23171;SDS011;11754;42.664;23.594;2023-07-31T06:14:12;19.05;;;17.02;;
23171;SDS011;11754;42.664;23.594;2023-07-31T06:16:37;18.00;;;16.20;;
23171;SDS011;11754;42.664;23.594;2023-07-31T06:19:02;22.95;;;16.35;;
23171;SDS011;11754;42.664;23.594;2023-07-31T06:21:28;16.95;;;15.23;;
23171;SDS011;11754;42.664;23.594;2023-07-31T06:23:53;15.48;;;13.73;;
23171;SDS011;11754;42.664;23.594;2023-07-31T06:26:18;20.52;;;14.48;;
23171;SDS011;11754;42.664;23.594;2023-07-31T06:28:44;17.90;;;12.93;;
23171;SDS011;11754;42.664;23.594;2023-07-31T06:31:09;16.35;;;12.68;;
23171;SDS011;11754;42.664;23.594;2023-07-31T06:33:35;14.90;;;12.20;;
23171;SDS011;11754;42.664;23.594;2023-07-31T06:36:00;14.32;;;10.75;;
23171;SDS011;11754;42.664;23.594;2023-07-31T06:38:26;13.43;;;10.63;;
23171;SDS011;11754;42.664;23.594;2023-07-31T06:40:52;12.05;;;10.60;;
23171;SDS011;11754;42.664;23.594;2023-07-31T06:43:17;11.35;;;10.10;;
23171;SDS011;11754;42.664;23.594;2023-07-31T06:45:43;13.90;;;10.50;;
23171;SDS011;11754;42.664;23.594;2023-07-31T06:48:08;12.10;;;10.82;;
23171;SDS011;11754;42.664;23.594;2023-07-31T06:50:34;12.82;;;10.35;;
23171;SDS011;11754;42.664;23.594;2023-07-31T06:52:59;13.48;;;9.90;;
23171;SDS011;11754;42.664;23.594;2023-07-31T06:55:25;10.43;;;8.70;;
23171;SDS011;11754;42.664;23.594;2023-07-31T06:57:52;10.68;;;8.38;;
23171;SDS011;11754;42.664;23.594;2023-07-31T07:00:19;13.27;;;8.48;;
23171;SDS011;11754;42.664;23.594;2023-07-31T07:02:45;11.63;;;8.55;;
23171;SDS011;11754;42.664;23.594;2023-07-31T07:05:14;9.68;;;7.70;;
23171;SDS011;11754;42.664;23.594;2023-07-31T07:07:40;10.73;;;8.00;;
23171;SDS011;11754;42.664;23.594;2023-07-31T07:10:06;10.27;;;8.10;;
23171;SDS011;11754;42.664;23.594;2023-07-31T07:12:32;10.05;;;7.07;;
23171;SDS011;11754;42.664;23.594;2023-07-31T07:14:58;8.00;;;6.55;;
23171;SDS011;11754;42.664;23.594;2023-07-31T07:17:24;9.88;;;6.43;;
23171;SDS011;11754;42.664;23.594;2023-07-31T07:19:49;13.23;;;6.65;;
23171;SDS011;11754;42.664;23.594;2023-07-31T07:22:15;11.88;;;6.82;;
23171;SDS011;11754;42.664;23.594;2023-07-31T07:24:41;7.00;;;6.32;;
23171;SDS011;11754;42.664;23.594;2023-07-31T07:27:06;10.02;;;6.03;;
23171;SDS011;11754;42.664;23.594;2023-07-31T07:29:33;8.13;;;6.45;;
23171;SDS011;11754;42.664;23.594;2023-07-31T07:31:59;9.23;;;5.38;;
23171;SDS011;11754;42.664;23.594;2023-07-31T07:34:27;8.15;;;5.82;;
23171;SDS011;11754;42.664;23.594;2023-07-31T07:36:53;9.18;;;5.90;;
23171;SDS011;11754;42.664;23.594;2023-07-31T07:39:19;10.48;;;6.10;;
23171;SDS011;11754;42.664;23.594;2023-07-31T07:45:07;8.88;;;6.30;;
23171;SDS011;11754;42.664;23.594;2023-07-31T07:47:33;9.43;;;5.75;;
23171;SDS011;11754;42.664;23.594;2023-07-31T07:49:58;6.70;;;5.45;;
23171;SDS011;11754;42.664;23.594;2023-07-31T07:52:23;7.82;;;5.75;;
23171;SDS011;11754;42.664;23.594;2023-07-31T07:54:49;9.73;;;5.85;;
23171;SDS011;11754;42.664;23.594;2023-07-31T07:57:15;7.68;;;5.80;;
23171;SDS011;11754;42.664;23.594;2023-07-31T07:59:40;7.35;;;5.10;;
23171;SDS011;11754;42.664;23.594;2023-07-31T08:02:06;10.18;;;5.10;;
23171;SDS011;11754;42.664;23.594;2023-07-31T08:04:32;5.85;;;5.18;;
23171;SDS011;11754;42.664;23.594;2023-07-31T08:06:57;8.40;;;5.72;;
23171;SDS011;11754;42.664;23.594;2023-07-31T08:09:23;8.95;;;5.78;;
23171;SDS011;11754;42.664;23.594;2023-07-31T08:11:48;5.97;;;4.90;;
23171;SDS011;11754;42.664;23.594;2023-07-31T08:14:13;9.57;;;5.13;;
23171;SDS011;11754;42.664;23.594;2023-07-31T08:16:39;9.05;;;4.93;;
23171;SDS011;11754;42.664;23.594;2023-07-31T08:19:04;9.18;;;4.88;;
23171;SDS011;11754;42.664;23.594;2023-07-31T08:21:29;8.25;;;4.85;;
23171;SDS011;11754;42.664;23.594;2023-07-31T08:23:56;6.82;;;4.60;;
23171;SDS011;11754;42.664;23.594;2023-07-31T08:26:21;6.82;;;5.22;;
23171;SDS011;11754;42.664;23.594;2023-07-31T08:28:47;6.97;;;4.63;;
23171;SDS011;11754;42.664;23.594;2023-07-31T08:31:12;7.65;;;4.43;;
23171;SDS011;11754;42.664;23.594;2023-07-31T08:33:38;6.45;;;4.38;;
23171;SDS011;11754;42.664;23.594;2023-07-31T08:36:03;9.20;;;4.18;;
23171;SDS011;11754;42.664;23.594;2023-07-31T08:38:29;5.47;;;4.88;;
23171;SDS011;11754;42.664;23.594;2023-07-31T08:40:56;7.68;;;4.10;;
23171;SDS011;11754;42.664;23.594;2023-07-31T08:43:22;7.20;;;3.88;;
23171;SDS011;11754;42.664;23.594;2023-07-31T08:45:51;8.52;;;3.97;;
23171;SDS011;11754;42.664;23.594;2023-07-31T08:48:17;6.13;;;3.75;;
23171;SDS011;11754;42.664;23.594;2023-07-31T08:50:44;4.97;;;3.70;;
23171;SDS011;11754;42.664;23.594;2023-07-31T08:53:10;5.60;;;3.45;;
23171;SDS011;11754;42.664;23.594;2023-07-31T08:55:36;5.28;;;3.50;;
23171;SDS011;11754;42.664;23.594;2023-07-31T08:58:03;9.45;;;4.47;;
23171;SDS011;11754;42.664;23.594;2023-07-31T09:00:29;12.20;;;4.40;;
23171;SDS011;11754;42.664;23.594;2023-07-31T09:03:01;4.72;;;3.63;;
23171;SDS011;11754;42.664;23.594;2023-07-31T09:05:29;8.13;;;3.67;;
23171;SDS011;11754;42.664;23.594;2023-07-31T09:07:56;5.63;;;3.40;;
23171;SDS011;11754;42.664;23.594;2023-07-31T09:10:22;7.78;;;3.50;;
23171;SDS011;11754;42.664;23.594;2023-07-31T09:12:48;4.57;;;3.25;;
23171;SDS011;11754;42.664;23.594;2023-07-31T09:15:15;4.78;;;3.38;;
23171;SDS011;11754;42.664;23.594;2023-07-31T09:17:41;5.65;;;3.78;;
23171;SDS011;11754;42.664;23.594;2023-07-31T09:20:19;4.90;;;2.67;;
23171;SDS011;11754;42.664;23.594;2023-07-31T09:22:50;6.72;;;2.97;;
23171;SDS011;11754;42.664;23.594;2023-07-31T09:27:56;7.95;;;3.42;;
23171;SDS011;11754;42.664;23.594;2023-07-31T09:30:23;8.68;;;3.55;;
23171;SDS011;11754;42.664;23.594;2023-07-31T09:32:49;5.25;;;2.78;;
23171;SDS011;11754;42.664;23.594;2023-07-31T09:35:22;3.95;;;3.00;;
23171;SDS011;11754;42.664;23.594;2023-07-31T09:37:53;3.88;;;2.88;;
23171;SDS011;11754;42.664;23.594;2023-07-31T09:40:26;5.70;;;3.00;;
23171;SDS011;11754;42.664;23.594;2023-07-31T09:42:59;6.18;;;2.90;;
23171;SDS011;11754;42.664;23.594;2023-07-31T09:45:29;5.50;;;3.08;;
23171;SDS011;11754;42.664;23.594;2023-07-31T09:47:55;7.00;;;3.05;;
23171;SDS011;11754;42.664;23.594;2023-07-31T09:50:22;5.57;;;2.95;;
23171;SDS011;11754;42.664;23.594;2023-07-31T09:52:49;3.28;;;2.58;;
23171;SDS011;11754;42.664;23.594;2023-07-31T09:55:15;3.67;;;2.65;;
23171;SDS011;11754;42.664;23.594;2023-07-31T09:57:41;3.78;;;2.78;;
23171;SDS011;11754;42.664;23.594;2023-07-31T10:00:10;7.07;;;2.70;;
23171;SDS011;11754;42.664;23.594;2023-07-31T10:02:36;2.72;;;2.38;;
23171;SDS011;11754;42.664;23.594;2023-07-31T10:05:03;3.28;;;2.75;;
23171;SDS011;11754;42.664;23.594;2023-07-31T10:07:30;4.43;;;2.60;;
23171;SDS011;11754;42.664;23.594;2023-07-31T10:09:59;6.47;;;2.70;;
23171;SDS011;11754;42.664;23.594;2023-07-31T10:12:28;4.78;;;2.58;;
23171;SDS011;11754;42.664;23.594;2023-07-31T10:18:16;5.40;;;2.40;;
23171;SDS011;11754;42.664;23.594;2023-07-31T10:20:43;5.68;;;2.03;;
23171;SDS011;11754;42.664;23.594;2023-07-31T10:23:09;10.02;;;2.30;;
23171;SDS011;11754;42.664;23.594;2023-07-31T10:25:35;5.70;;;2.00;;
23171;SDS011;11754;42.664;23.594;2023-07-31T10:28:01;2.50;;;1.90;;
23171;SDS011;11754;42.664;23.594;2023-07-31T10:30:29;3.00;;;1.60;;
23171;SDS011;11754;42.664;23.594;2023-07-31T10:32:55;4.40;;;1.60;;
23171;SDS011;11754;42.664;23.594;2023-07-31T10:35:21;2.78;;;1.58;;
23171;SDS011;11754;42.664;23.594;2023-07-31T10:37:49;3.20;;;1.50;;
23171;SDS011;11754;42.664;23.594;2023-07-31T10:40:19;4.00;;;1.55;;
23171;SDS011;11754;42.664;23.594;2023-07-31T10:42:58;19.48;;;2.05;;
23171;SDS011;11754;42.664;23.594;2023-07-31T10:45:25;4.25;;;1.33;;
23171;SDS011;11754;42.664;23.594;2023-07-31T10:47:58;2.25;;;1.13;;
23171;SDS011;11754;42.664;23.594;2023-07-31T10:50:28;2.20;;;1.10;;
23171;SDS011;11754;42.664;23.594;2023-07-31T10:56:16;1.88;;;1.00;;
23171;SDS011;11754;42.664;23.594;2023-07-31T10:58:44;9.02;;;1.55;;
23171;SDS011;11754;42.664;23.594;2023-07-31T11:01:11;3.70;;;1.15;;
23171;SDS011;11754;42.664;23.594;2023-07-31T11:06:12;3.00;;;1.00;;
23171;SDS011;11754;42.664;23.594;2023-07-31T11:08:43;2.50;;;1.23;;
23171;SDS011;11754;42.664;23.594;2023-07-31T11:11:10;2.42;;;1.05;;
23171;SDS011;11754;42.664;23.594;2023-07-31T11:13:44;2.35;;;1.10;;
23171;SDS011;11754;42.664;23.594;2023-07-31T11:16:14;1.45;;;0.90;;
23171;SDS011;11754;42.664;23.594;2023-07-31T11:18:40;5.40;;;0.98;;
23171;SDS011;11754;42.664;23.594;2023-07-31T11:21:07;3.63;;;1.10;;
23171;SDS011;11754;42.664;23.594;2023-07-31T11:23:33;5.20;;;1.10;;
23171;SDS011;11754;42.664;23.594;2023-07-31T11:25:59;4.75;;;1.20;;
23171;SDS011;11754;42.664;23.594;2023-07-31T11:28:25;1.27;;;0.90;;
23171;SDS011;11754;42.664;23.594;2023-07-31T11:30:50;2.83;;;1.08;;
23171;SDS011;11754;42.664;23.594;2023-07-31T11:33:16;5.15;;;1.17;;
23171;SDS011;11754;42.664;23.594;2023-07-31T11:35:43;4.00;;;0.98;;
23171;SDS011;11754;42.664;23.594;2023-07-31T11:38:09;1.63;;;0.90;;
23171;SDS011;11754;42.664;23.594;2023-07-31T11:40:43;2.78;;;0.80;;
23171;SDS011;11754;42.664;23.594;2023-07-31T11:43:09;6.82;;;1.30;;
23171;SDS011;11754;42.664;23.594;2023-07-31T11:45:36;4.80;;;1.00;;
23171;SDS011;11754;42.664;23.594;2023-07-31T11:48:02;4.38;;;1.00;;
23171;SDS011;11754;42.664;23.594;2023-07-31T11:50:28;2.33;;;0.93;;
23171;SDS011;11754;42.664;23.594;2023-07-31T11:52:55;3.50;;;1.10;;
23171;SDS011;11754;42.664;23.594;2023-07-31T11:55:24;3.60;;;1.00;;
23171;SDS011;11754;42.664;23.594;2023-07-31T11:57:50;5.07;;;0.95;;
23171;SDS011;11754;42.664;23.594;2023-07-31T12:00:17;12.95;;;1.45;;
23171;SDS011;11754;42.664;23.594;2023-07-31T12:02:43;4.43;;;1.02;;
23171;SDS011;11754;42.664;23.594;2023-07-31T12:05:12;2.88;;;0.98;;
23171;SDS011;11754;42.664;23.594;2023-07-31T12:13:19;1.20;;;0.80;;
23171;SDS011;11754;42.664;23.594;2023-07-31T12:15:46;2.75;;;0.90;;
23171;SDS011;11754;42.664;23.594;2023-07-31T12:18:13;3.10;;;0.70;;
23171;SDS011;11754;42.664;23.594;2023-07-31T12:20:43;0.73;;;0.55;;
23171;SDS011;11754;42.664;23.594;2023-07-31T12:23:19;1.10;;;0.60;;
23171;SDS011;11754;42.664;23.594;2023-07-31T12:26:08;5.43;;;1.13;;
23171;SDS011;11754;42.664;23.594;2023-07-31T12:28:41;1.02;;;0.60;;
23171;SDS011;11754;42.664;23.594;2023-07-31T12:31:09;2.97;;;0.70;;
23171;SDS011;11754;42.664;23.594;2023-07-31T12:33:37;5.22;;;0.70;;
23171;SDS011;11754;42.664;23.594;2023-07-31T12:36:04;7.10;;;1.02;;
23171;SDS011;11754;42.664;23.594;2023-07-31T12:38:33;4.45;;;1.00;;
23171;SDS011;11754;42.664;23.594;2023-07-31T12:40:58;2.38;;;0.75;;
23171;SDS011;11754;42.664;23.594;2023-07-31T12:43:23;1.07;;;0.73;;
23171;SDS011;11754;42.664;23.594;2023-07-31T12:45:49;5.53;;;1.02;;
23171;SDS011;11754;42.664;23.594;2023-07-31T12:48:14;3.67;;;0.70;;
23171;SDS011;11754;42.664;23.594;2023-07-31T12:50:39;2.87;;;0.90;;
23171;SDS011;11754;42.664;23.594;2023-07-31T12:53:05;5.47;;;1.38;;
23171;SDS011;11754;42.664;23.594;2023-07-31T12:55:31;5.38;;;1.73;;
23171;SDS011;11754;42.664;23.594;2023-07-31T12:57:59;8.48;;;2.03;;
23171;SDS011;11754;42.664;23.594;2023-07-31T13:00:24;5.10;;;1.85;;
23171;SDS011;11754;42.664;23.594;2023-07-31T13:02:51;2.92;;;1.90;;
23171;SDS011;11754;42.664;23.594;2023-07-31T13:05:16;2.30;;;2.10;;
23171;SDS011;11754;42.664;23.594;2023-07-31T13:07:43;4.43;;;2.30;;
23171;SDS011;11754;42.664;23.594;2023-07-31T13:10:08;4.67;;;2.30;;
23171;SDS011;11754;42.664;23.594;2023-07-31T13:12:33;4.35;;;2.35;;
23171;SDS011;11754;42.664;23.594;2023-07-31T13:14:59;4.90;;;2.63;;
23171;SDS011;11754;42.664;23.594;2023-07-31T13:17:24;3.13;;;2.20;;
23171;SDS011;11754;42.664;23.594;2023-07-31T13:19:50;4.40;;;2.35;;
23171;SDS011;11754;42.664;23.594;2023-07-31T13:22:15;4.17;;;2.20;;
23171;SDS011;11754;42.664;23.594;2023-07-31T13:24:41;6.07;;;5.03;;
23171;SDS011;11754;42.664;23.594;2023-07-31T13:27:06;3.40;;;2.00;;
23171;SDS011;11754;42.664;23.594;2023-07-31T13:29:32;2.23;;;1.97;;
23171;SDS011;11754;42.664;23.594;2023-07-31T13:31:57;1.95;;;1.65;;
23171;SDS011;11754;42.664;23.594;2023-07-31T13:34:23;3.58;;;1.92;;
23171;SDS011;11754;42.664;23.594;2023-07-31T13:36:48;2.83;;;1.80;;
23171;SDS011;11754;42.664;23.594;2023-07-31T13:39:13;3.92;;;1.33;;
23171;SDS011;11754;42.664;23.594;2023-07-31T13:41:39;1.70;;;1.13;;
23171;SDS011;11754;42.664;23.594;2023-07-31T13:44:04;2.00;;;1.13;;
23171;SDS011;11754;42.664;23.594;2023-07-31T13:46:29;5.13;;;2.13;;
23171;SDS011;11754;42.664;23.594;2023-07-31T13:48:55;3.45;;;2.00;;
23171;SDS011;11754;42.664;23.594;2023-07-31T13:51:21;5.07;;;2.00;;
23171;SDS011;11754;42.664;23.594;2023-07-31T13:53:47;4.95;;;2.05;;
23171;SDS011;11754;42.664;23.594;2023-07-31T13:56:12;4.00;;;2.05;;
23171;SDS011;11754;42.664;23.594;2023-07-31T13:58:38;3.17;;;2.22;;
23171;SDS011;11754;42.664;23.594;2023-07-31T14:01:03;3.05;;;2.20;;
23171;SDS011;11754;42.664;23.594;2023-07-31T14:03:29;3.00;;;2.70;;
23171;SDS011;11754;42.664;23.594;2023-07-31T14:05:54;6.88;;;2.60;;
23171;SDS011;11754;42.664;23.594;2023-07-31T14:08:20;3.95;;;2.60;;
23171;SDS011;11754;42.664;23.594;2023-07-31T14:10:46;4.45;;;2.47;;
23171;SDS011;11754;42.664;23.594;2023-07-31T14:13:11;7.55;;;2.60;;
23171;SDS011;11754;42.664;23.594;2023-07-31T14:15:37;3.90;;;2.50;;
23171;SDS011;11754;42.664;23.594;2023-07-31T14:18:02;4.32;;;2.55;;
23171;SDS011;11754;42.664;23.594;2023-07-31T14:20:27;3.25;;;2.40;;
23171;SDS011;11754;42.664;23.594;2023-07-31T14:22:53;6.60;;;2.75;;
23171;SDS011;11754;42.664;23.594;2023-07-31T14:25:19;4.32;;;2.67;;
23171;SDS011;11754;42.664;23.594;2023-07-31T14:27:45;10.60;;;3.00;;
23171;SDS011;11754;42.664;23.594;2023-07-31T14:30:10;5.82;;;2.40;;
23171;SDS011;11754;42.664;23.594;2023-07-31T14:32:36;3.03;;;2.00;;
23171;SDS011;11754;42.664;23.594;2023-07-31T14:35:02;3.25;;;1.70;;
23171;SDS011;11754;42.664;23.594;2023-07-31T14:37:36;1.52;;;1.30;;
23171;SDS011;11754;42.664;23.594;2023-07-31T14:40:06;2.28;;;1.42;;
23171;SDS011;11754;42.664;23.594;2023-07-31T14:42:32;2.95;;;1.55;;